Time;durP1;ratioP1;P1;durP2;ratioP2;P2;SDS_P1;SDS_P2;PMS_P1;PMS_P2;Temp;Humidity;BMP_temperature;BMP_pressure;BME280_temperature;BME280_humidity;BME280_pressure;Samples;Min_cycle;Max_cycle;Signal;HPM_P1;HPM_P2
2021/12/18 00:01:17;;;;;;;11.68;7.90;;;;;;;;;;5096192;28;20035;-70
2021/12/18 00:03:44;;;;;;;13.75;6.93;;;;;;;;;;5094296;28;20020;-70
2021/12/18 00:06:10;;;;;;;14.07;7.40;;;;;;;;;;5096069;28;20073;-70
2021/12/18 00:08:38;;;;;;;13.45;8.15;;;;;;;;;;5095797;28;20020;-71
2021/12/18 00:11:04;;;;;;;16.33;8.15;;;;;;;;;;5095572;28;20028;-70
2021/12/18 00:13:30;;;;;;;14.60;6.70;;;;;;;;;;5094527;28;20046;-70
2021/12/18 00:15:57;;;;;;;12.38;6.75;;;;;;;;;;5095884;28;20105;-70
2021/12/18 00:18:24;;;;;;;14.60;6.57;;;;;;;;;;5095453;28;20025;-70
2021/12/18 00:20:50;;;;;;;13.27;6.93;;;;;;;;;;5095560;28;20032;-70
2021/12/18 00:23:17;;;;;;;14.20;7.38;;;;;;;;;;5095763;28;20024;-70
2021/12/18 00:25:43;;;;;;;11.55;6.18;;;;;;;;;;5094076;28;20024;-70
2021/12/18 00:28:10;;;;;;;11.85;6.07;;;;;;;;;;5094461;28;20020;-70
2021/12/18 00:30:36;;;;;;;13.15;7.75;;;;;;;;;;5095402;28;20103;-70
2021/12/18 00:33:03;;;;;;;11.50;6.22;;;;;;;;;;5095055;28;20032;-68
2021/12/18 00:35:29;;;;;;;12.05;6.40;;;;;;;;;;5095488;28;20028;-70
2021/12/18 00:37:56;;;;;;;10.68;5.97;;;;;;;;;;5095399;28;20095;-70
2021/12/18 00:40:25;;;;;;;12.65;6.45;;;;;;;;;;5095051;28;20032;-70
2021/12/18 00:43:01;;;;;;;11.90;5.88;;;;;;;;;;5094026;28;20055;-69
2021/12/18 00:45:29;;;;;;;10.98;6.10;;;;;;;;;;5095471;28;20127;-70
2021/12/18 00:47:55;;;;;;;13.27;7.03;;;;;;;;;;5094873;28;20027;-70
2021/12/18 00:50:23;;;;;;;13.68;6.20;;;;;;;;;;5095214;28;20053;-70
2021/12/18 00:52:49;;;;;;;10.45;5.93;;;;;;;;;;5094999;28;20027;-69
2021/12/18 00:55:16;;;;;;;11.40;5.90;;;;;;;;;;5095585;28;20055;-70
2021/12/18 00:57:44;;;;;;;10.23;5.65;;;;;;;;;;5095079;28;20020;-69
2021/12/18 01:00:12;;;;;;;11.25;5.90;;;;;;;;;;5094800;28;20068;-70
2021/12/18 01:02:42;;;;;;;11.77;5.70;;;;;;;;;;5095078;28;20470;-70
2021/12/18 01:05:09;;;;;;;10.60;6.00;;;;;;;;;;5094910;28;20053;-70
2021/12/18 01:07:35;;;;;;;12.48;6.13;;;;;;;;;;5094628;28;20366;-70
2021/12/18 01:10:11;;;;;;;11.50;5.70;;;;;;;;;;5094880;28;20020;-69
2021/12/18 01:12:42;;;;;;;10.98;6.05;;;;;;;;;;5094737;28;20494;-70
2021/12/18 01:15:24;;;;;;;12.25;6.30;;;;;;;;;;5094450;28;20028;-69
2021/12/18 01:23:22;;;;;;;13.13;6.82;;;;;;;;;;5094230;28;20086;-70
2021/12/18 01:25:48;;;;;;;13.15;7.07;;;;;;;;;;5094551;28;20020;-69
2021/12/18 01:28:15;;;;;;;11.65;6.38;;;;;;;;;;5094028;28;20024;-70
2021/12/18 01:30:41;;;;;;;13.68;7.65;;;;;;;;;;5094258;28;20020;-70
2021/12/18 01:33:07;;;;;;;13.07;6.10;;;;;;;;;;5094323;28;20437;-68
2021/12/18 01:35:34;;;;;;;15.25;7.50;;;;;;;;;;5094098;28;20036;-70
2021/12/18 01:38:00;;;;;;;16.80;6.88;;;;;;;;;;5094427;28;20020;-70
2021/12/18 01:40:26;;;;;;;23.05;8.75;;;;;;;;;;5094259;28;20032;-69
2021/12/18 01:53:40;;;;;;;10.90;6.68;;;;;;;;;;5094050;28;20027;-69
2021/12/18 01:56:06;;;;;;;12.30;6.70;;;;;;;;;;5093823;28;20032;-69
2021/12/18 01:58:33;;;;;;;12.00;6.18;;;;;;;;;;5093556;28;20484;-70
2021/12/18 02:01:01;;;;;;;11.48;6.07;;;;;;;;;;5092630;28;20396;-70
2021/12/18 02:03:27;;;;;;;12.80;6.15;;;;;;;;;;5093493;28;20040;-69
2021/12/18 02:05:54;;;;;;;11.13;5.57;;;;;;;;;;5093426;28;20015;-70
2021/12/18 02:08:22;;;;;;;13.35;6.78;;;;;;;;;;5093910;28;20450;-70
2021/12/18 02:10:54;;;;;;;11.85;5.68;;;;;;;;;;5093185;28;20020;-69
2021/12/18 02:13:37;;;;;;;11.95;5.43;;;;;;;;;;5094181;28;20089;-70
2021/12/18 02:21:33;;;;;;;11.98;5.20;;;;;;;;;;5094111;28;20476;-69
2021/12/18 02:24:00;;;;;;;8.52;4.82;;;;;;;;;;5093607;28;20020;-69
2021/12/18 02:26:26;;;;;;;8.10;4.82;;;;;;;;;;5093042;28;20472;-70
2021/12/18 02:28:56;;;;;;;14.27;6.40;;;;;;;;;;5093354;28;20103;-70
2021/12/18 02:31:23;;;;;;;10.70;5.43;;;;;;;;;;5093073;28;20025;-70
2021/12/18 02:33:49;;;;;;;12.05;5.70;;;;;;;;;;5093194;28;20052;-70
2021/12/18 02:36:23;;;;;;;11.30;6.40;;;;;;;;;;5093575;28;20035;-70
2021/12/18 02:41:32;;;;;;;11.93;6.35;;;;;;;;;;5093424;28;20039;-68
2021/12/18 02:44:02;;;;;;;14.32;7.72;;;;;;;;;;5093571;28;20059;-68
2021/12/18 02:46:28;;;;;;;17.17;7.82;;;;;;;;;;5092979;28;20016;-70
2021/12/18 02:48:55;;;;;;;17.63;8.85;;;;;;;;;;5093071;28;20034;-68
2021/12/18 02:51:22;;;;;;;17.05;8.32;;;;;;;;;;5093244;28;20024;-68
2021/12/18 02:53:49;;;;;;;17.05;7.68;;;;;;;;;;5092714;28;20488;-70
2021/12/18 02:56:16;;;;;;;13.27;6.68;;;;;;;;;;5093303;28;20031;-70
2021/12/18 02:58:43;;;;;;;17.30;8.23;;;;;;;;;;5093180;28;20023;-70
2021/12/18 03:01:11;;;;;;;27.40;13.40;;;;;;;;;;5092964;28;20024;-70
2021/12/18 03:03:40;;;;;;;17.67;10.07;;;;;;;;;;5093419;28;20025;-70
2021/12/18 03:06:33;;;;;;;10.95;6.60;;;;;;;;;;5093212;28;20024;-70
2021/12/18 03:25:21;;;;;;;9.85;5.70;;;;;;;;;;5097023;28;20078;-70
2021/12/18 03:27:48;;;;;;;11.38;5.95;;;;;;;;;;5095487;28;20418;-71
2021/12/18 03:30:15;;;;;;;13.32;5.90;;;;;;;;;;5096814;28;20024;-71
2021/12/18 03:32:41;;;;;;;9.30;5.32;;;;;;;;;;5096595;28;20027;-70
2021/12/18 03:35:08;;;;;;;12.10;5.75;;;;;;;;;;5096192;28;20040;-70
2021/12/18 03:37:35;;;;;;;11.70;6.35;;;;;;;;;;5096755;28;20016;-70
2021/12/18 03:40:02;;;;;;;12.45;5.50;;;;;;;;;;5096761;28;20504;-70
2021/12/18 03:42:28;;;;;;;13.35;5.90;;;;;;;;;;5094908;28;20476;-70
2021/12/18 03:44:54;;;;;;;11.48;5.43;;;;;;;;;;5096394;28;20520;-70
2021/12/18 03:47:20;;;;;;;12.65;5.93;;;;;;;;;;5096535;28;20027;-70
2021/12/18 03:49:46;;;;;;;12.75;6.38;;;;;;;;;;5096124;28;20099;-70
2021/12/18 03:52:13;;;;;;;14.68;6.35;;;;;;;;;;5096434;28;20489;-70
2021/12/18 03:54:39;;;;;;;12.93;6.78;;;;;;;;;;5096115;28;20117;-70
2021/12/18 03:57:05;;;;;;;13.85;7.32;;;;;;;;;;5096146;28;20047;-70
2021/12/18 03:59:32;;;;;;;12.50;6.60;;;;;;;;;;5094785;28;20031;-70
2021/12/18 04:01:58;;;;;;;12.40;6.65;;;;;;;;;;5096287;28;20020;-70
2021/12/18 04:04:24;;;;;;;13.75;7.05;;;;;;;;;;5095816;28;20461;-70
2021/12/18 04:06:51;;;;;;;12.13;7.00;;;;;;;;;;5095989;28;20032;-70
2021/12/18 04:09:17;;;;;;;16.50;6.95;;;;;;;;;;5096067;28;20016;-70
2021/12/18 04:11:44;;;;;;;16.00;7.53;;;;;;;;;;5095695;28;20050;-70
2021/12/18 04:14:11;;;;;;;13.02;6.28;;;;;;;;;;5096012;28;20111;-71
2021/12/18 04:16:38;;;;;;;10.60;5.90;;;;;;;;;;5095825;28;20020;-70
2021/12/18 04:19:04;;;;;;;13.13;5.93;;;;;;;;;;5095559;28;20115;-70
2021/12/18 04:21:32;;;;;;;10.88;5.78;;;;;;;;;;5094656;28;20036;-70
2021/12/18 04:23:58;;;;;;;11.63;5.78;;;;;;;;;;5094092;28;20059;-69
2021/12/18 04:26:24;;;;;;;12.48;6.50;;;;;;;;;;5095960;28;20025;-70
2021/12/18 04:28:51;;;;;;;11.55;6.80;;;;;;;;;;5095209;28;20028;-70
2021/12/18 04:31:17;;;;;;;10.60;5.80;;;;;;;;;;5095322;28;20028;-70
2021/12/18 04:33:43;;;;;;;10.93;5.53;;;;;;;;;;5095377;28;20564;-70
2021/12/18 04:36:10;;;;;;;10.43;5.68;;;;;;;;;;5095612;28;20103;-70
2021/12/18 04:38:36;;;;;;;10.88;6.10;;;;;;;;;;5095145;28;20028;-70
2021/12/18 04:41:04;;;;;;;10.55;6.40;;;;;;;;;;5095539;28;20035;-69
2021/12/18 04:43:30;;;;;;;13.25;6.38;;;;;;;;;;5095567;28;20040;-70
2021/12/18 04:45:56;;;;;;;14.05;5.80;;;;;;;;;;5093595;28;20084;-70
2021/12/18 04:48:23;;;;;;;15.35;7.05;;;;;;;;;;5095329;28;20031;-70
2021/12/18 04:50:49;;;;;;;13.15;7.40;;;;;;;;;;5095138;28;20465;-70
2021/12/18 04:53:15;;;;;;;20.42;8.05;;;;;;;;;;5094852;28;20038;-71
2021/12/18 04:55:41;;;;;;;12.65;6.85;;;;;;;;;;5095136;28;20032;-70
2021/12/18 04:58:08;;;;;;;15.98;7.13;;;;;;;;;;5095153;28;20047;-70
2021/12/18 05:00:39;;;;;;;13.00;7.18;;;;;;;;;;5094706;28;20036;-70
2021/12/18 05:03:12;;;;;;;11.45;5.80;;;;;;;;;;5095203;28;20020;-70
2021/12/18 05:05:38;;;;;;;11.45;6.30;;;;;;;;;;5095408;28;20486;-70
2021/12/18 05:08:05;;;;;;;13.85;6.25;;;;;;;;;;5094591;28;20024;-70
2021/12/18 05:10:31;;;;;;;13.18;6.78;;;;;;;;;;5094896;28;20027;-69
2021/12/18 05:12:57;;;;;;;11.88;6.57;;;;;;;;;;5093301;28;20077;-70
2021/12/18 05:15:24;;;;;;;13.55;6.60;;;;;;;;;;5094418;28;20041;-70
2021/12/18 05:17:50;;;;;;;13.05;5.90;;;;;;;;;;5094822;28;20441;-70
2021/12/18 05:20:16;;;;;;;9.27;5.13;;;;;;;;;;5093049;28;20088;-69
2021/12/18 05:22:43;;;;;;;13.98;5.18;;;;;;;;;;5094504;28;20106;-70
2021/12/18 05:25:09;;;;;;;10.32;5.68;;;;;;;;;;5094581;28;20028;-70
2021/12/18 05:27:36;;;;;;;9.80;5.63;;;;;;;;;;5094231;28;20028;-69
2021/12/18 05:30:06;;;;;;;12.30;5.78;;;;;;;;;;5094432;28;20020;-69
2021/12/18 05:32:32;;;;;;;7.82;4.82;;;;;;;;;;5094205;28;20028;-69
2021/12/18 05:34:58;;;;;;;8.18;4.60;;;;;;;;;;5093628;28;20051;-69
2021/12/18 05:39:51;;;;;;;14.23;6.45;;;;;;;;;;5093572;28;20028;-69
2021/12/18 05:42:17;;;;;;;12.02;6.13;;;;;;;;;;5093883;28;20051;-69
2021/12/18 05:44:44;;;;;;;10.85;5.05;;;;;;;;;;5094049;28;20034;-69
2021/12/18 05:47:10;;;;;;;14.25;5.45;;;;;;;;;;5094298;28;20035;-69
2021/12/18 05:49:37;;;;;;;10.07;4.95;;;;;;;;;;5093835;28;20447;-69
2021/12/18 05:52:03;;;;;;;9.88;4.40;;;;;;;;;;5094094;28;20493;-69
2021/12/18 05:54:34;;;;;;;11.00;5.18;;;;;;;;;;5094015;28;20111;-69
2021/12/18 05:57:01;;;;;;;11.70;5.32;;;;;;;;;;5093509;28;20081;-69
2021/12/18 05:59:27;;;;;;;15.30;6.35;;;;;;;;;;5094005;28;20468;-69
2021/12/18 06:01:53;;;;;;;11.88;6.13;;;;;;;;;;5093920;28;20107;-70
2021/12/18 06:04:19;;;;;;;16.30;6.65;;;;;;;;;;5093393;28;20024;-69
2021/12/18 06:06:46;;;;;;;21.92;11.57;;;;;;;;;;5093608;28;20518;-70
2021/12/18 06:09:12;;;;;;;20.92;10.32;;;;;;;;;;5093773;28;20032;-68
2021/12/18 06:11:40;;;;;;;13.98;6.53;;;;;;;;;;5093358;28;20028;-69
2021/12/18 06:14:07;;;;;;;16.48;6.88;;;;;;;;;;5093846;28;20039;-69
2021/12/18 06:16:33;;;;;;;11.43;6.35;;;;;;;;;;5091957;28;20020;-69
2021/12/18 06:18:59;;;;;;;9.90;5.32;;;;;;;;;;5093496;28;20489;-69
2021/12/18 06:21:25;;;;;;;10.35;5.53;;;;;;;;;;5093807;28;20039;-69
2021/12/18 06:23:54;;;;;;;12.00;5.75;;;;;;;;;;5093316;28;20385;-70
2021/12/18 06:26:21;;;;;;;13.15;6.72;;;;;;;;;;5093599;28;20012;-72
2021/12/18 06:28:48;;;;;;;14.20;6.25;;;;;;;;;;5093453;28;20020;-72
2021/12/18 06:31:14;;;;;;;14.20;7.20;;;;;;;;;;5093155;28;20020;-70
2021/12/18 06:33:40;;;;;;;17.05;8.00;;;;;;;;;;5093409;28;20393;-70
2021/12/18 06:36:06;;;;;;;15.52;8.57;;;;;;;;;;5093631;28;20070;-70
2021/12/18 06:38:33;;;;;;;10.90;7.28;;;;;;;;;;5093088;28;20082;-70
2021/12/18 06:40:59;;;;;;;12.55;7.50;;;;;;;;;;5093609;28;20048;-70
2021/12/18 06:43:25;;;;;;;13.43;7.20;;;;;;;;;;5093655;28;20035;-70
2021/12/18 06:45:51;;;;;;;14.70;8.00;;;;;;;;;;5093257;28;20539;-70
2021/12/18 06:48:17;;;;;;;15.90;8.18;;;;;;;;;;5093395;28;20379;-69
2021/12/18 06:50:43;;;;;;;14.50;7.90;;;;;;;;;;5094685;28;20101;-70
2021/12/18 06:53:10;;;;;;;16.05;8.45;;;;;;;;;;5097076;28;20020;-69
2021/12/18 06:55:36;;;;;;;16.38;8.98;;;;;;;;;;5097389;28;20032;-70
2021/12/18 06:58:02;;;;;;;17.23;8.40;;;;;;;;;;5097508;28;20132;-70
2021/12/18 07:00:29;;;;;;;14.07;7.60;;;;;;;;;;5097141;28;20430;-71
2021/12/18 07:02:55;;;;;;;15.57;8.02;;;;;;;;;;5095772;28;20028;-70
2021/12/18 07:05:22;;;;;;;14.35;7.75;;;;;;;;;;5097435;28;20095;-70
2021/12/18 07:07:50;;;;;;;14.98;8.05;;;;;;;;;;5096883;28;20034;-71
2021/12/18 07:10:17;;;;;;;22.30;9.32;;;;;;;;;;5097448;28;20496;-70
2021/12/18 07:12:43;;;;;;;18.85;9.90;;;;;;;;;;5097062;28;20468;-71
2021/12/18 07:15:10;;;;;;;25.35;11.95;;;;;;;;;;5096666;28;20036;-70
2021/12/18 07:17:36;;;;;;;13.23;9.05;;;;;;;;;;5097219;28;20028;-72
2021/12/18 07:20:03;;;;;;;18.33;8.95;;;;;;;;;;5096651;28;20031;-70
2021/12/18 07:22:29;;;;;;;15.77;9.10;;;;;;;;;;5095976;28;20430;-70
2021/12/18 07:24:55;;;;;;;23.35;12.75;;;;;;;;;;5095541;28;20028;-70
2021/12/18 07:27:22;;;;;;;18.45;10.70;;;;;;;;;;5096491;28;20380;-70
2021/12/18 07:29:48;;;;;;;17.50;9.20;;;;;;;;;;5096856;28;20445;-70
2021/12/18 07:32:14;;;;;;;20.05;9.60;;;;;;;;;;5097026;28;20057;-70
2021/12/18 07:34:41;;;;;;;17.38;10.52;;;;;;;;;;5095646;28;20051;-71
2021/12/18 07:37:07;;;;;;;20.15;12.00;;;;;;;;;;5096710;28;20027;-71
2021/12/18 07:39:33;;;;;;;26.25;12.05;;;;;;;;;;5096804;28;20020;-70
2021/12/18 07:41:59;;;;;;;17.10;9.93;;;;;;;;;;5096245;28;20069;-70
2021/12/18 07:44:25;;;;;;;13.57;8.48;;;;;;;;;;5096570;28;20059;-70
2021/12/18 07:46:51;;;;;;;15.05;9.90;;;;;;;;;;5096421;28;20095;-71
2021/12/18 07:49:18;;;;;;;15.40;8.77;;;;;;;;;;5096369;28;20414;-71
2021/12/18 07:51:44;;;;;;;17.70;8.93;;;;;;;;;;5096779;28;20073;-70
2021/12/18 07:54:10;;;;;;;13.13;7.32;;;;;;;;;;5096338;28;20499;-70
2021/12/18 07:56:36;;;;;;;16.08;9.70;;;;;;;;;;5095922;28;20031;-71
2021/12/18 07:59:03;;;;;;;18.73;9.38;;;;;;;;;;5095062;28;20020;-70
2021/12/18 08:01:29;;;;;;;18.42;10.55;;;;;;;;;;5096104;28;20028;-69
2021/12/18 08:03:55;;;;;;;19.52;9.30;;;;;;;;;;5095280;28;20473;-70
2021/12/18 08:06:22;;;;;;;17.33;8.25;;;;;;;;;;5096188;28;20024;-71
2021/12/18 08:08:48;;;;;;;15.38;8.77;;;;;;;;;;5095965;28;20020;-70
2021/12/18 08:11:15;;;;;;;18.17;9.70;;;;;;;;;;5095666;28;20024;-71
2021/12/18 08:13:42;;;;;;;16.20;8.02;;;;;;;;;;5096032;28;20035;-71
2021/12/18 08:16:09;;;;;;;17.17;8.82;;;;;;;;;;5095582;28;20031;-71
2021/12/18 08:18:35;;;;;;;17.73;8.07;;;;;;;;;;5095835;28;20016;-70
2021/12/18 08:21:01;;;;;;;14.77;8.38;;;;;;;;;;5095663;28;20050;-70
2021/12/18 08:23:27;;;;;;;15.13;9.15;;;;;;;;;;5095244;28;20024;-71
2021/12/18 08:25:54;;;;;;;18.02;10.73;;;;;;;;;;5095787;28;20050;-70
2021/12/18 08:28:20;;;;;;;14.45;7.28;;;;;;;;;;5095700;28;20024;-71
2021/12/18 08:30:46;;;;;;;16.90;9.60;;;;;;;;;;5095098;28;20430;-71
2021/12/18 08:33:13;;;;;;;19.13;9.90;;;;;;;;;;5095288;28;20078;-71
2021/12/18 08:35:39;;;;;;;17.60;9.93;;;;;;;;;;5095518;28;20511;-71
2021/12/18 08:38:06;;;;;;;21.48;12.65;;;;;;;;;;5095086;28;20029;-70
2021/12/18 08:40:33;;;;;;;19.80;11.27;;;;;;;;;;5095510;28;20031;-70
2021/12/18 08:42:59;;;;;;;20.13;11.55;;;;;;;;;;5095154;28;20080;-71
2021/12/18 08:45:25;;;;;;;15.38;8.77;;;;;;;;;;5095056;28;20025;-70
2021/12/18 08:47:52;;;;;;;21.30;11.82;;;;;;;;;;5095367;28;20024;-71
2021/12/18 08:50:22;;;;;;;22.15;12.20;;;;;;;;;;5095341;28;20024;-71
2021/12/18 08:52:49;;;;;;;15.18;8.35;;;;;;;;;;5094722;28;20070;-71
2021/12/18 08:55:17;;;;;;;17.77;8.45;;;;;;;;;;5095055;28;20502;-71
2021/12/18 08:57:43;;;;;;;15.57;9.30;;;;;;;;;;5095219;28;20024;-70
2021/12/18 09:00:11;;;;;;;16.65;8.93;;;;;;;;;;5094686;28;20488;-71
2021/12/18 09:02:39;;;;;;;12.88;7.70;;;;;;;;;;5095023;28;20501;-70
2021/12/18 09:05:06;;;;;;;12.10;6.82;;;;;;;;;;5095090;28;20031;-71
2021/12/18 09:07:32;;;;;;;13.18;7.35;;;;;;;;;;5094565;28;20027;-71
2021/12/18 09:09:58;;;;;;;17.80;8.40;;;;;;;;;;5094984;28;20035;-70
2021/12/18 09:12:25;;;;;;;12.25;7.25;;;;;;;;;;5094498;28;20025;-71
2021/12/18 09:14:51;;;;;;;13.75;8.05;;;;;;;;;;5093554;28;20043;-71
2021/12/18 09:17:18;;;;;;;13.82;8.35;;;;;;;;;;5094816;28;20046;-70
2021/12/18 09:19:44;;;;;;;14.30;8.85;;;;;;;;;;5094304;28;20552;-70
2021/12/18 09:22:10;;;;;;;14.68;8.30;;;;;;;;;;5094708;28;20020;-71
2021/12/18 09:24:37;;;;;;;11.07;6.78;;;;;;;;;;5094367;28;20067;-70
2021/12/18 09:27:04;;;;;;;9.93;5.90;;;;;;;;;;5094209;28;20048;-71
2021/12/18 09:29:30;;;;;;;13.45;7.47;;;;;;;;;;5094570;28;20102;-71
2021/12/18 09:31:56;;;;;;;19.60;10.77;;;;;;;;;;5094459;28;20035;-70
2021/12/18 09:34:23;;;;;;;14.23;8.15;;;;;;;;;;5093807;28;20063;-71
2021/12/18 09:36:49;;;;;;;11.80;7.80;;;;;;;;;;5094247;28;20375;-70
2021/12/18 09:39:15;;;;;;;11.52;7.00;;;;;;;;;;5094294;28;20024;-71
2021/12/18 09:41:43;;;;;;;17.83;9.35;;;;;;;;;;5094228;28;20020;-71
2021/12/18 09:44:09;;;;;;;16.55;8.48;;;;;;;;;;5094226;28;20024;-71
2021/12/18 09:46:35;;;;;;;16.05;9.48;;;;;;;;;;5093995;28;20016;-71
2021/12/18 09:49:02;;;;;;;12.00;7.75;;;;;;;;;;5093653;28;20030;-70
2021/12/18 09:51:29;;;;;;;14.02;7.82;;;;;;;;;;5094031;28;20035;-70
2021/12/18 09:53:55;;;;;;;12.77;7.47;;;;;;;;;;5092793;28;20027;-70
2021/12/18 09:56:22;;;;;;;10.27;5.75;;;;;;;;;;5093597;28;20020;-70
2021/12/18 09:58:48;;;;;;;14.70;8.07;;;;;;;;;;5093722;28;20047;-71
2021/12/18 10:01:15;;;;;;;14.63;7.75;;;;;;;;;;5093948;28;20051;-70
2021/12/18 10:03:55;;;;;;;17.50;8.98;;;;;;;;;;5093451;28;20047;-70
2021/12/18 10:06:38;;;;;;;12.35;7.53;;;;;;;;;;5093770;28;20043;-70
2021/12/18 10:09:06;;;;;;;12.52;7.05;;;;;;;;;;5093662;28;20027;-70
2021/12/18 10:11:32;;;;;;;15.18;8.52;;;;;;;;;;5093809;28;20117;-71
2021/12/18 10:14:02;;;;;;;14.50;7.57;;;;;;;;;;5092360;28;20158;-70
2021/12/18 10:16:29;;;;;;;16.05;8.18;;;;;;;;;;5093281;28;20020;-70
2021/12/18 10:18:59;;;;;;;16.02;8.50;;;;;;;;;;5092164;28;20551;-71
2021/12/18 10:21:27;;;;;;;12.38;7.57;;;;;;;;;;5093678;28;20024;-71
2021/12/18 10:23:54;;;;;;;17.33;8.55;;;;;;;;;;5093179;28;20016;-70
2021/12/18 10:26:42;;;;;;;12.10;7.45;;;;;;;;;;5093281;28;20502;-71
2021/12/18 10:29:27;;;;;;;12.13;7.00;;;;;;;;;;5093219;28;20022;-70
2021/12/18 10:31:54;;;;;;;13.80;8.50;;;;;;;;;;5093004;28;20020;-71
2021/12/18 10:34:25;;;;;;;13.18;7.85;;;;;;;;;;5091795;28;20127;-71
2021/12/18 10:37:11;;;;;;;11.10;7.55;;;;;;;;;;5092704;28;20048;-71
2021/12/18 10:39:38;;;;;;;14.25;8.05;;;;;;;;;;5093265;28;20483;-72
2021/12/18 10:42:21;;;;;;;13.13;8.02;;;;;;;;;;5093345;28;20024;-70
2021/12/18 10:45:16;;;;;;;12.93;7.30;;;;;;;;;;5092965;28;20024;-70
2021/12/18 10:47:42;;;;;;;14.27;8.50;;;;;;;;;;5079533;28;20112;-70
2021/12/18 10:50:23;;;;;;;13.98;8.57;;;;;;;;;;5093320;28;20020;-71
2021/12/18 10:53:02;;;;;;;9.65;5.72;;;;;;;;;;5092544;28;20024;-70
2021/12/18 10:55:33;;;;;;;12.75;7.68;;;;;;;;;;5093237;28;20119;-71
2021/12/18 10:57:59;;;;;;;13.25;7.82;;;;;;;;;;5092913;28;20527;-71
2021/12/18 11:00:32;;;;;;;14.25;7.07;;;;;;;;;;5091673;28;20047;-69
2021/12/18 11:02:58;;;;;;;;;;;;;;;;;;5093348;28;20028;-70
2021/12/18 11:05:24;;;;;;;15.93;9.27;;;;;;;;;;5092679;28;19904;-70
2021/12/18 11:08:07;;;;;;;13.07;6.90;;;;;;;;;;5093030;28;20024;-70
2021/12/18 11:15:51;;;;;;;11.55;6.50;;;;;;;;;;5093023;28;20391;-70
2021/12/18 11:18:18;;;;;;;12.10;6.95;;;;;;;;;;5093059;28;20017;-70
2021/12/18 11:20:44;;;;;;;11.32;7.20;;;;;;;;;;5092424;28;20407;-71
2021/12/18 11:23:10;;;;;;;10.32;5.75;;;;;;;;;;5093000;28;20016;-71
2021/12/18 11:25:39;;;;;;;15.27;7.63;;;;;;;;;;5093101;28;20027;-71
2021/12/18 11:28:07;;;;;;;13.38;7.25;;;;;;;;;;5091272;28;20534;-71
2021/12/18 11:30:33;;;;;;;13.68;7.72;;;;;;;;;;5092841;28;20444;-71
2021/12/18 11:33:00;;;;;;;11.52;6.53;;;;;;;;;;5092562;28;20035;-70
2021/12/18 11:35:27;;;;;;;32.13;15.15;;;;;;;;;;5092699;28;20062;-70
2021/12/18 11:38:08;;;;;;;11.07;6.55;;;;;;;;;;5111305;27;20935;-71
2021/12/18 11:40:36;;;;;;;14.55;8.05;;;;;;;;;;5110714;28;20036;-71
2021/12/18 11:43:28;;;;;;;13.25;7.57;;;;;;;;;;5111092;28;20058;-71
2021/12/18 11:45:55;;;;;;;18.65;11.55;;;;;;;;;;5087261;28;20113;-73
2021/12/18 11:48:21;;;;;;;11.02;6.47;;;;;;;;;;5110674;28;20023;-70
2021/12/18 11:50:48;;;;;;;15.75;9.43;;;;;;;;;;5110890;28;20023;-72
2021/12/18 11:53:18;;;;;;;12.35;6.15;;;;;;;;;;5111044;28;20061;-71
2021/12/18 11:55:50;;;;;;;14.77;7.00;;;;;;;;;;5109270;28;20426;-70
2021/12/18 11:58:17;;;;;;;15.82;6.75;;;;;;;;;;5110900;28;20035;-71
2021/12/18 12:00:44;;;;;;;12.43;7.50;;;;;;;;;;5110608;28;20480;-71
2021/12/18 12:03:11;;;;;;;11.88;7.35;;;;;;;;;;5110296;28;20089;-71
2021/12/18 12:05:45;;;;;;;10.25;5.93;;;;;;;;;;5110683;28;20028;-70
2021/12/18 12:08:22;;;;;;;12.73;7.53;;;;;;;;;;5110483;28;20036;-71
2021/12/18 12:11:17;;;;;;;10.98;6.35;;;;;;;;;;5110487;28;20028;-72
2021/12/18 12:18:50;;;;;;;13.35;6.35;;;;;;;;;;5111270;27;20414;-71
2021/12/18 12:21:39;;;;;;;14.35;6.47;;;;;;;;;;5110982;28;20073;-72
2021/12/18 12:24:06;;;;;;;14.38;6.10;;;;;;;;;;5102735;28;20036;-71
2021/12/18 12:26:55;;;;;;;11.23;6.20;;;;;;;;;;5111276;27;20396;-71
2021/12/18 12:29:22;;;;;;;12.68;6.78;;;;;;;;;;5110767;28;20019;-71
2021/12/18 12:32:01;;;;;;;10.75;6.35;;;;;;;;;;5109827;28;20049;-71
2021/12/18 12:36:23;;;;;;;14.65;6.55;;;;;;;;;;5111369;27;20446;-69
2021/12/18 12:38:54;;;;;;;14.55;6.88;;;;;;;;;;5110973;28;20028;-70
2021/12/18 12:41:35;;;;;;;15.93;7.47;;;;;;;;;;5111348;28;20020;-70
2021/12/18 12:44:04;;;;;;;12.02;5.90;;;;;;;;;;5109683;28;20422;-70
2021/12/18 12:46:30;;;;;;;9.68;5.80;;;;;;;;;;5110712;28;20020;-71
2021/12/18 12:50:00;;;;;;;10.60;5.53;;;;;;;;;;5111294;27;20389;-70
2021/12/18 12:52:27;;;;;;;10.98;5.57;;;;;;;;;;5110590;28;20027;-71
2021/12/18 12:55:44;;;;;;;12.27;6.25;;;;;;;;;;5111062;27;20880;-72
2021/12/18 12:58:24;;;;;;;9.57;5.28;;;;;;;;;;5110796;28;20069;-72
2021/12/18 13:03:13;;;;;;;17.90;8.15;;;;;;;;;;5111513;27;20381;-72
2021/12/18 13:08:21;;;;;;;22.08;12.50;;;;;;;;;;5111264;27;20906;-72
2021/12/18 13:10:49;;;;;;;21.45;12.52;;;;;;;;;;5110985;28;20024;-71
2021/12/18 13:13:26;;;;;;;18.85;11.60;;;;;;;;;;5110843;27;20446;-71
2021/12/18 13:18:29;;;;;;;19.65;10.93;;;;;;;;;;5111039;27;20388;-71
2021/12/18 13:21:33;;;;;;;14.80;9.40;;;;;;;;;;5111442;27;20396;-72
2021/12/18 13:24:28;;;;;;;14.00;8.00;;;;;;;;;;5111370;27;20450;-71
2021/12/18 13:26:54;;;;;;;17.88;10.15;;;;;;;;;;5110557;28;20028;-71
2021/12/18 13:29:21;;;;;;;10.05;5.72;;;;;;;;;;5111318;28;20054;-70
2021/12/18 13:31:52;;;;;;;12.80;8.13;;;;;;;;;;5110992;28;20426;-71
2021/12/18 13:35:43;;;;;;;12.45;6.80;;;;;;;;;;5111583;27;20389;-71
2021/12/18 13:38:14;;;;;;;15.02;9.32;;;;;;;;;;5109898;28;20101;-71
2021/12/18 13:42:34;;;;;;;14.68;8.43;;;;;;;;;;5091537;27;20450;-71
2021/12/18 13:46:06;;;;;;;14.93;8.07;;;;;;;;;;5111279;27;20900;-71
2021/12/18 13:51:33;;;;;;;18.80;9.02;;;;;;;;;;5111202;27;20458;-70
2021/12/18 13:54:01;;;;;;;17.00;9.68;;;;;;;;;;5110887;28;20071;-70
2021/12/18 13:56:31;;;;;;;17.98;10.77;;;;;;;;;;5111010;28;20046;-70
2021/12/18 13:58:57;;;;;;;19.08;9.57;;;;;;;;;;5110899;28;20455;-72
2021/12/18 14:03:26;;;;;;;20.02;11.32;;;;;;;;;;5131703;27;20353;-70
2021/12/18 14:07:24;;;;;;;14.45;8.38;;;;;;;;;;5070647;28;20446;-71
2021/12/18 14:09:52;;;;;;;21.15;11.80;;;;;;;;;;5070211;28;20035;-71
2021/12/18 14:15:19;;;;;;;23.13;12.70;;;;;;;;;;5070624;28;20449;-71
2021/12/18 14:17:46;;;;;;;18.90;11.52;;;;;;;;;;5070756;28;20025;-70
2021/12/18 14:20:14;;;;;;;19.08;11.18;;;;;;;;;;5070401;28;20500;-71
2021/12/18 14:22:41;;;;;;;17.52;9.05;;;;;;;;;;5069881;28;20055;-71
2021/12/18 14:25:11;;;;;;;16.75;10.65;;;;;;;;;;5070500;28;20104;-70
2021/12/18 14:27:55;;;;;;;18.63;11.23;;;;;;;;;;5070422;28;20029;-70
2021/12/18 14:30:32;;;;;;;15.82;11.43;;;;;;;;;;5069995;28;20074;-71
2021/12/18 14:33:12;;;;;;;18.85;11.75;;;;;;;;;;5069964;28;20040;-70
2021/12/18 14:35:48;;;;;;;24.30;11.50;;;;;;;;;;5070072;28;20020;-71
2021/12/18 14:38:18;;;;;;;19.98;9.20;;;;;;;;;;5070052;28;20029;-70
2021/12/18 14:40:44;;;;;;;14.38;8.15;;;;;;;;;;5069972;28;20029;-70
2021/12/18 14:43:17;;;;;;;17.23;9.38;;;;;;;;;;5069720;28;20067;-72
2021/12/18 14:45:44;;;;;;;16.67;8.52;;;;;;;;;;5070173;28;20500;-72
2021/12/18 14:48:10;;;;;;;18.88;10.52;;;;;;;;;;5070030;28;20064;-70
2021/12/18 14:50:45;;;;;;;19.85;11.55;;;;;;;;;;5069465;28;20029;-70
2021/12/18 14:53:13;;;;;;;15.32;9.82;;;;;;;;;;5069920;28;20381;-71
2021/12/18 14:55:42;;;;;;;20.35;12.32;;;;;;;;;;5069816;28;20028;-70
2021/12/18 14:58:28;;;;;;;21.33;11.52;;;;;;;;;;5069408;28;20381;-70
2021/12/18 15:00:54;;;;;;;18.02;10.90;;;;;;;;;;5069475;28;20021;-70
2021/12/18 15:03:28;;;;;;;19.42;11.20;;;;;;;;;;5069745;28;20123;-70
2021/12/18 15:06:19;;;;;;;23.92;12.75;;;;;;;;;;5051365;28;20021;-71
2021/12/18 15:08:58;;;;;;;20.90;11.25;;;;;;;;;;5060028;28;20119;-70
2021/12/18 15:11:37;;;;;;;20.63;13.23;;;;;;;;;;5069408;28;20469;-71
2021/12/18 15:14:24;;;;;;;27.40;14.40;;;;;;;;;;5069243;28;20128;-70
2021/12/18 15:17:03;;;;;;;18.02;10.90;;;;;;;;;;5069188;28;20027;-70
2021/12/18 15:19:30;;;;;;;17.48;10.15;;;;;;;;;;5068954;28;20428;-70
2021/12/18 15:21:57;;;;;;;20.58;11.27;;;;;;;;;;5069320;28;20028;-70
2021/12/18 15:24:24;;;;;;;19.02;10.00;;;;;;;;;;5051206;28;20017;-70
2021/12/18 15:26:51;;;;;;;19.65;11.45;;;;;;;;;;5037011;28;20029;-70
2021/12/18 15:29:19;;;;;;;18.63;11.30;;;;;;;;;;5056115;28;20025;-70
2021/12/18 15:31:47;;;;;;;20.77;11.18;;;;;;;;;;5056113;28;20017;-70
2021/12/18 15:34:14;;;;;;;24.13;14.00;;;;;;;;;;5055546;28;20108;-70
2021/12/18 15:36:41;;;;;;;26.20;15.38;;;;;;;;;;5055678;28;20108;-71
2021/12/18 15:39:07;;;;;;;26.00;14.45;;;;;;;;;;5055603;28;20385;-70
2021/12/18 15:41:34;;;;;;;23.85;12.98;;;;;;;;;;5055838;28;20104;-70
2021/12/18 15:44:01;;;;;;;21.75;14.00;;;;;;;;;;5055866;28;20079;-70
2021/12/18 15:46:27;;;;;;;29.88;16.05;;;;;;;;;;5055385;28;20434;-70
2021/12/18 15:48:54;;;;;;;25.13;12.70;;;;;;;;;;5055401;28;20033;-70
2021/12/18 15:51:20;;;;;;;30.50;13.20;;;;;;;;;;5055486;28;20111;-70
2021/12/18 15:53:47;;;;;;;18.17;10.02;;;;;;;;;;5055092;28;20068;-70
2021/12/18 15:56:15;;;;;;;18.60;10.52;;;;;;;;;;5037467;28;20025;-70